createdAt,value
2023-05-18T00:04:48.896Z,95738.81
2023-05-18T00:09:51.275Z,95745.16
2023-05-18T00:14:54.058Z,95730.31
2023-05-18T00:19:58.870Z,95755.69
2023-05-18T00:25:01.941Z,95753.41
2023-05-18T00:30:06.595Z,95742.03
2023-05-18T00:35:12.249Z,95740.00
2023-05-18T00:40:14.678Z,95773.28
2023-05-18T00:45:19.302Z,95749.00
2023-05-18T00:50:22.382Z,95721.03
2023-05-18T00:55:25.159Z,95721.41
2023-05-18T01:00:28.698Z,95749.66
2023-05-18T01:05:32.492Z,95744.84
2023-05-18T01:10:38.677Z,95739.81
2023-05-18T01:15:42.289Z,95745.09
2023-05-18T01:20:50.309Z,95754.38
2023-05-18T01:25:56.321Z,95781.06
2023-05-18T01:31:00.464Z,95766.25
2023-05-18T01:36:03.426Z,95765.44
2023-05-18T01:41:15.245Z,95793.47
2023-05-18T01:46:33.515Z,95787.13
2023-05-18T01:51:41.680Z,95761.41
2023-05-18T01:56:46.502Z,95773.47
2023-05-18T02:01:49.283Z,95763.31
2023-05-18T02:06:54.559Z,95761.84
2023-05-18T02:11:57.477Z,95759.78
2023-05-18T02:17:01.315Z,95796.63
2023-05-18T02:22:08.527Z,95801.03
2023-05-18T02:27:11.993Z,95783.19
2023-05-18T02:32:14.930Z,95788.63
2023-05-18T02:37:17.784Z,95803.91
2023-05-18T02:42:20.041Z,95762.63
2023-05-18T02:47:23.130Z,95780.13
2023-05-18T02:52:26.375Z,95806.22
2023-05-18T02:57:29.390Z,95819.66
2023-05-18T03:02:39.345Z,95805.06
2023-05-18T03:07:46.384Z,95810.09
2023-05-18T03:12:49.785Z,95842.59
2023-05-18T03:17:53.613Z,95844.44
2023-05-18T03:22:56.269Z,95808.28
2023-05-18T03:28:00.393Z,95850.69
2023-05-18T03:33:04.765Z,95845.00
2023-05-18T03:38:08.753Z,95850.38
2023-05-18T03:43:13.505Z,95865.69
2023-05-18T03:48:17.611Z,95880.13
2023-05-18T03:53:21.689Z,95860.63
2023-05-18T03:58:27.690Z,95855.06
2023-05-18T04:03:31.060Z,95896.66
2023-05-18T04:08:34.648Z,95891.19
2023-05-18T04:13:38.683Z,95862.38
2023-05-18T04:18:42.439Z,95870.94
2023-05-18T04:23:46.011Z,95878.94
2023-05-18T04:28:48.781Z,95857.38
2023-05-18T04:34:10.194Z,95867.94
2023-05-18T04:39:13.775Z,95883.50
2023-05-18T04:44:18.706Z,95881.63
2023-05-18T04:49:23.170Z,95887.47
2023-05-18T04:54:27.002Z,95903.03
2023-05-18T04:59:30.307Z,95917.50
2023-05-18T05:04:35.671Z,95893.69
2023-05-18T05:09:38.716Z,95931.16
2023-05-18T05:14:41.593Z,95910.66
2023-05-18T05:19:44.307Z,95904.41
2023-05-18T05:24:48.044Z,95950.47
2023-05-18T05:29:50.985Z,95950.28
2023-05-18T05:34:53.932Z,95939.97
2023-05-18T05:39:57.117Z,95938.50
2023-05-18T05:45:00.029Z,95937.88
2023-05-18T05:50:04.216Z,95898.94
2023-05-18T05:55:07.528Z,95916.69
2023-05-18T06:00:13.608Z,95929.38
2023-05-18T06:05:32.937Z,95939.84
2023-05-18T06:10:36.977Z,95925.34
2023-05-18T06:15:40.420Z,95942.09
2023-05-18T06:20:43.451Z,95945.13
2023-05-18T06:25:47.565Z,95957.28
2023-05-18T06:31:00.951Z,95968.69
2023-05-18T06:36:21.417Z,95957.53
2023-05-18T06:41:24.216Z,95991.44
2023-05-18T06:46:27.307Z,95948.78
2023-05-18T06:51:36.638Z,95966.06
2023-05-18T06:56:40.138Z,95977.72
2023-05-18T07:01:43.212Z,95989.41
2023-05-18T07:06:47.250Z,96018.88
2023-05-18T07:11:49.908Z,96010.44
2023-05-18T07:16:52.705Z,96000.84
2023-05-18T07:21:57.112Z,95970.06
2023-05-18T07:27:01.072Z,96000.53
2023-05-18T07:32:04.391Z,96011.88
2023-05-18T07:37:06.729Z,96029.91
2023-05-18T07:42:09.587Z,96031.03
2023-05-18T07:47:12.476Z,96039.56
2023-05-18T07:52:15.458Z,96041.44
2023-05-18T07:57:18.260Z,96024.81
2023-05-18T08:02:21.178Z,96061.66
2023-05-18T08:07:26.801Z,96060.50
2023-05-18T08:12:30.339Z,96078.78
2023-05-18T08:17:33.064Z,96081.06
2023-05-18T08:22:35.708Z,96086.94
2023-05-18T08:27:38.554Z,96098.06
2023-05-18T08:32:40.801Z,96109.97
2023-05-18T08:37:43.808Z,96107.19
2023-05-18T08:43:03.769Z,96101.22
2023-05-18T08:48:07.895Z,96111.28
2023-05-18T08:53:14.740Z,96078.50
2023-05-18T08:58:21.735Z,96080.94
2023-05-18T09:03:25.133Z,96112.69
2023-05-18T09:08:29.316Z,96096.22
2023-05-18T09:13:32.097Z,96103.00
2023-05-18T09:18:34.856Z,96117.31
2023-05-18T09:23:39.868Z,96111.81
2023-05-18T09:28:44.298Z,96117.41
2023-05-18T09:33:48.411Z,96125.53
2023-05-18T09:38:54.184Z,96115.69
2023-05-18T09:43:57.003Z,96120.06
2023-05-18T09:49:00.125Z,96142.75
2023-05-18T09:54:06.396Z,96138.41
2023-05-18T09:59:15.849Z,96133.63
2023-05-18T10:04:21.856Z,96146.91
2023-05-18T10:09:24.626Z,96154.78
2023-05-18T10:14:31.581Z,96138.22
2023-05-18T10:19:40.388Z,96149.94
2023-05-18T10:24:46.714Z,96176.59
2023-05-18T10:29:52.746Z,96140.84
2023-05-18T10:34:57.473Z,96154.38
2023-05-18T10:40:01.299Z,96185.19
2023-05-18T10:45:05.338Z,96165.88
2023-05-18T10:50:09.533Z,96161.63
2023-05-18T10:55:12.870Z,96190.63
2023-05-18T11:00:16.530Z,96197.81
2023-05-18T11:05:26.594Z,96184.69
2023-05-18T11:10:36.420Z,96191.00
2023-05-18T11:15:56.138Z,96218.22
2023-05-18T11:21:00.191Z,96209.84
2023-05-18T11:26:05.862Z,96201.94
2023-05-18T11:31:08.504Z,96196.78
2023-05-18T11:36:13.886Z,96214.41
2023-05-18T11:41:29.660Z,96212.50
2023-05-18T11:46:32.020Z,96205.94
2023-05-18T11:51:57.232Z,96213.72
2023-05-18T11:57:01.415Z,96187.88
2023-05-18T12:02:05.266Z,96187.44
2023-05-18T12:07:08.148Z,96195.00
2023-05-18T12:12:12.623Z,96196.44
2023-05-18T12:17:15.349Z,96208.91
2023-05-18T12:22:17.610Z,96175.44
2023-05-18T12:27:23.269Z,96189.81
2023-05-18T12:32:26.502Z,96194.03
2023-05-18T12:37:38.091Z,96192.81
2023-05-18T12:42:56.707Z,96201.34
2023-05-18T12:48:09.962Z,96181.94
2023-05-18T12:53:13.169Z,96210.75
2023-05-18T12:58:19.261Z,96194.81
2023-05-18T13:03:23.015Z,96190.94
2023-05-18T13:08:25.825Z,96193.84
2023-05-18T13:13:28.897Z,96194.09
2023-05-18T13:18:31.763Z,96193.44
2023-05-18T13:23:33.960Z,96193.19
2023-05-18T13:28:36.584Z,96192.41
2023-05-18T13:33:39.210Z,96185.44
2023-05-18T13:38:42.874Z,96183.69
2023-05-18T13:43:45.575Z,96160.31
2023-05-18T13:48:48.321Z,96204.91
2023-05-18T13:53:51.194Z,96199.00
2023-05-18T13:58:53.952Z,96195.28
2023-05-18T14:03:56.406Z,96200.19
2023-05-18T14:08:59.303Z,96184.72
2023-05-18T14:14:01.976Z,96207.47
2023-05-18T14:19:04.912Z,96187.72
2023-05-18T14:24:08.725Z,96182.47
2023-05-18T14:29:11.387Z,96189.06
2023-05-18T14:34:14.321Z,96173.75
2023-05-18T14:39:16.692Z,96199.84
2023-05-18T14:44:19.554Z,96172.97
2023-05-18T14:49:21.792Z,96187.75
2023-05-18T14:54:24.513Z,96157.16
2023-05-18T14:59:27.274Z,96162.41
2023-05-18T15:04:29.514Z,96154.13
2023-05-18T15:09:32.285Z,96169.16
2023-05-18T15:14:34.958Z,96165.13
2023-05-18T15:19:37.741Z,96165.34
2023-05-18T15:24:40.451Z,96177.22
2023-05-18T15:29:43.241Z,96168.31
2023-05-18T15:34:45.422Z,96174.13
2023-05-18T15:39:48.107Z,96165.03
2023-05-18T15:44:50.981Z,96167.91
2023-05-18T15:49:54.767Z,96179.91
2023-05-18T15:54:59.091Z,96174.63
2023-05-18T16:00:02.076Z,96180.75
2023-05-18T16:05:14.332Z,96183.78
2023-05-18T16:10:18.849Z,96199.53
2023-05-18T16:15:24.673Z,96200.41
2023-05-18T16:20:27.414Z,96215.50
2023-05-18T16:25:30.089Z,96217.81
2023-05-18T16:30:32.574Z,96213.81
2023-05-18T16:35:36.021Z,96195.53
2023-05-18T16:40:39.023Z,96204.81
2023-05-18T16:45:42.703Z,96194.63
2023-05-18T16:50:45.819Z,96213.03
2023-05-18T16:55:49.902Z,96211.38
2023-05-18T17:00:53.506Z,96219.56
2023-05-18T17:05:56.350Z,96221.78
2023-05-18T17:10:59.333Z,96239.22
2023-05-18T17:16:02.262Z,96217.78
2023-05-18T17:21:04.962Z,96232.59
2023-05-18T17:26:07.689Z,96215.25
2023-05-18T17:31:10.566Z,96210.53
2023-05-18T17:36:14.525Z,96239.75
2023-05-18T17:41:17.540Z,96262.78
2023-05-18T17:46:20.377Z,96249.44
2023-05-18T17:51:25.410Z,96249.63
2023-05-18T17:56:28.430Z,96262.25
2023-05-18T18:01:31.697Z,96281.19
2023-05-18T18:06:37.489Z,96282.63
2023-05-18T18:11:40.310Z,96282.66
2023-05-18T18:16:42.559Z,96269.13
2023-05-18T18:21:45.255Z,96273.84
2023-05-18T18:26:49.263Z,96289.81
2023-05-18T18:31:51.996Z,96245.53
2023-05-18T18:36:54.280Z,96281.19
2023-05-18T18:41:57.181Z,96313.41
2023-05-18T18:46:59.936Z,96302.34
2023-05-18T18:52:02.660Z,96289.28
2023-05-18T18:57:05.981Z,96300.13
2023-05-18T19:02:08.280Z,96313.72
2023-05-18T19:07:11.109Z,96307.50
2023-05-18T19:12:13.831Z,96303.28
2023-05-18T19:17:17.248Z,96311.72
2023-05-18T19:22:20.301Z,96304.03
2023-05-18T19:27:23.283Z,96304.13
2023-05-18T19:32:26.533Z,96306.97
2023-05-18T19:37:28.888Z,96313.41
2023-05-18T19:42:31.744Z,96299.31
2023-05-18T19:47:36.266Z,96278.91
2023-05-18T19:52:39.131Z,96298.34
2023-05-18T19:57:41.478Z,96314.56
2023-05-18T20:02:44.341Z,96324.47
2023-05-18T20:07:47.303Z,96330.66
2023-05-18T20:12:50.143Z,96279.28
2023-05-18T20:17:53.369Z,96317.19
2023-05-18T20:22:57.282Z,96304.34
2023-05-18T20:28:01.574Z,96287.63
2023-05-18T20:33:05.114Z,96251.97
2023-05-18T20:38:08.177Z,96252.13
2023-05-18T20:43:11.879Z,96309.81
2023-05-18T20:48:18.473Z,96274.19
2023-05-18T20:53:21.961Z,96306.94
2023-05-18T20:58:27.254Z,96306.84
2023-05-18T21:03:30.734Z,96313.34
2023-05-18T21:08:39.125Z,96293.56
2023-05-18T21:13:42.156Z,96320.03
2023-05-18T21:18:45.286Z,96308.78
2023-05-18T21:23:50.880Z,96307.38
2023-05-18T21:28:53.726Z,96272.50
2023-05-18T21:33:56.759Z,96268.00
2023-05-18T21:39:01.880Z,96300.09
2023-05-18T21:44:05.596Z,96275.84
2023-05-18T21:49:09.235Z,96311.00
2023-05-18T21:54:11.658Z,96300.09
2023-05-18T21:59:14.359Z,96298.19
2023-05-18T22:04:18.082Z,96317.13
2023-05-18T22:09:20.997Z,96323.69
2023-05-18T22:14:23.217Z,96291.03
2023-05-18T22:19:26.150Z,96277.97
2023-05-18T22:24:28.976Z,96292.94
2023-05-18T22:29:32.248Z,96275.91
2023-05-18T22:34:35.092Z,96273.00
2023-05-18T22:39:37.357Z,96289.63
2023-05-18T22:44:40.079Z,96303.28
2023-05-18T22:49:42.498Z,96294.13
2023-05-18T22:54:45.327Z,96284.06
2023-05-18T22:59:48.070Z,96283.19
2023-05-18T23:04:50.592Z,96298.56
2023-05-18T23:09:54.123Z,96307.69
2023-05-18T23:14:56.789Z,96297.16
2023-05-18T23:20:03.168Z,96307.28
2023-05-18T23:25:08.951Z,96284.50
2023-05-18T23:30:12.419Z,96280.44
2023-05-18T23:35:15.902Z,96299.47
2023-05-18T23:40:19.641Z,96298.16
2023-05-18T23:45:22.367Z,96310.69
2023-05-18T23:50:26.036Z,96297.94
2023-05-18T23:55:28.681Z,96303.53
